QTR46F OOSA-OTHH
Flight info
| Callsign | QTR46F |
|---|---|
| Flight time | N/A |
| Altitude | 37000 |
| Route | DAXAM Y414 DEDSO/N0466F360 L425 GOBRO DCT METNO DCT OBSEP/N0462F370 DCT LADBO/N0482F290 T142 LAEEB |
| Aircraft | A320/M-SDE3FGHIRWY/LB1 |
Departure
| Time | N/A |
|---|---|
| Airport | Salalah International Airport (OOSA) |
Arrival
| Time | 2026-05-03 21:01 |
|---|---|
| Airport | Hamad International Airport (OTHH) |
| Time | Latitude | Longitude | Altitude | Speed | Heading |
|---|---|---|---|---|---|
| 2026-05-03 20:15 | 22.28040 | 51.48015 | 36843 ft | 454 kts | 328° |
| 2026-05-03 20:15 | 22.33573 | 51.44699 | 36842 ft | 454 kts | 328° |
| 2026-05-03 20:16 | 22.39117 | 51.41382 | 36841 ft | 454 kts | 328° |
| 2026-05-03 20:16 | 22.44665 | 51.38067 | 36845 ft | 454 kts | 328° |
| 2026-05-03 20:17 | 22.50161 | 51.34770 | 36843 ft | 454 kts | 328° |
| 2026-05-03 20:17 | 22.55692 | 51.31448 | 36847 ft | 454 kts | 328° |
| 2026-05-03 20:18 | 22.61219 | 51.28124 | 36845 ft | 454 kts | 328° |
| 2026-05-03 20:18 | 22.66751 | 51.24803 | 36847 ft | 454 kts | 328° |
| 2026-05-03 20:19 | 22.72280 | 51.21484 | 36848 ft | 453 kts | 328° |
| 2026-05-03 20:19 | 22.77759 | 51.18178 | 36848 ft | 453 kts | 327° |
| 2026-05-03 20:20 | 22.83328 | 51.14920 | 36845 ft | 455 kts | 333° |
| 2026-05-03 20:20 | 22.89526 | 51.13235 | 36846 ft | 464 kts | 353° |
| 2026-05-03 20:21 | 22.96017 | 51.13510 | 36845 ft | 468 kts | 0° |
| 2026-05-03 20:21 | 23.02500 | 51.13996 | 36845 ft | 468 kts | 0° |
| 2026-05-03 20:22 | 23.09027 | 51.14473 | 36843 ft | 469 kts | 0° |
| 2026-05-03 20:22 | 23.15545 | 51.14943 | 36847 ft | 469 kts | 0° |
| 2026-05-03 20:23 | 23.22035 | 51.15414 | 36849 ft | 469 kts | 0° |
| 2026-05-03 20:23 | 23.28576 | 51.15893 | 36844 ft | 470 kts | 0° |
| 2026-05-03 20:24 | 23.35102 | 51.16378 | 36855 ft | 469 kts | 0° |
| 2026-05-03 20:24 | 23.41589 | 51.16851 | 36842 ft | 469 kts | 360° |
| 2026-05-03 20:25 | 23.48131 | 51.17328 | 36846 ft | 469 kts | 360° |
| 2026-05-03 20:25 | 23.54663 | 51.17812 | 36849 ft | 470 kts | 360° |
| 2026-05-03 20:26 | 23.61149 | 51.18291 | 36850 ft | 470 kts | 360° |
| 2026-05-03 20:26 | 23.67675 | 51.18766 | 36856 ft | 470 kts | 359° |
| 2026-05-03 20:27 | 23.74210 | 51.19243 | 36850 ft | 470 kts | 360° |
| 2026-05-03 20:27 | 23.80743 | 51.19729 | 36851 ft | 469 kts | 360° |
| 2026-05-03 20:28 | 23.87272 | 51.20212 | 36859 ft | 469 kts | 359° |
| 2026-05-03 20:28 | 23.93799 | 51.20698 | 36857 ft | 469 kts | 359° |
| 2026-05-03 20:29 | 24.00322 | 51.21183 | 36854 ft | 469 kts | 359° |
| 2026-05-03 20:29 | 24.06848 | 51.21665 | 36861 ft | 469 kts | 359° |
| 2026-05-03 20:30 | 24.13335 | 51.22142 | 36859 ft | 469 kts | 359° |
| 2026-05-03 20:30 | 24.19842 | 51.22623 | 36579 ft | 462 kts | 359° |
| 2026-05-03 20:30 | 24.23044 | 51.22861 | 36050 ft | 461 kts | 359° |
| 2026-05-03 20:31 | 24.26252 | 51.23102 | 35592 ft | 459 kts | 359° |
| 2026-05-03 20:31 | 24.29384 | 51.23579 | 35173 ft | 461 kts | 8° |
| 2026-05-03 20:31 | 24.32465 | 51.24628 | 34720 ft | 465 kts | 18° |
| 2026-05-03 20:31 | 24.35361 | 51.26226 | 34267 ft | 468 kts | 28° |
| 2026-05-03 20:32 | 24.37995 | 51.28343 | 33815 ft | 471 kts | 38° |
| 2026-05-03 20:32 | 24.40394 | 51.30799 | 33296 ft | 470 kts | 40° |
| 2026-05-03 20:32 | 24.42763 | 51.33254 | 32825 ft | 466 kts | 40° |
| 2026-05-03 20:32 | 24.45112 | 51.35683 | 32393 ft | 462 kts | 40° |
| 2026-05-03 20:33 | 24.47444 | 51.38094 | 31926 ft | 457 kts | 40° |
| 2026-05-03 20:33 | 24.49761 | 51.40488 | 30577 ft | 461 kts | 39° |
| 2026-05-03 20:33 | 24.52221 | 51.42833 | 28498 ft | 474 kts | 33° |
| 2026-05-03 20:33 | 24.55035 | 51.44840 | 26461 ft | 492 kts | 25° |
| 2026-05-03 20:34 | 24.58148 | 51.46525 | 24969 ft | 503 kts | 24° |
| 2026-05-03 20:34 | 24.61268 | 51.48197 | 23646 ft | 494 kts | 24° |
| 2026-05-03 20:34 | 24.64324 | 51.49858 | 22010 ft | 484 kts | 25° |
| 2026-05-03 20:34 | 24.67301 | 51.51485 | 20460 ft | 471 kts | 25° |
| 2026-05-03 20:35 | 24.70186 | 51.53040 | 19110 ft | 461 kts | 24° |
| 2026-05-03 20:35 | 24.73074 | 51.54514 | 17679 ft | 449 kts | 22° |
| 2026-05-03 20:35 | 24.75896 | 51.55887 | 16119 ft | 438 kts | 21° |
| 2026-05-03 20:35 | 24.78675 | 51.57203 | 14713 ft | 429 kts | 21° |
| 2026-05-03 20:36 | 24.81396 | 51.58543 | 13864 ft | 427 kts | 25° |
| 2026-05-03 20:36 | 24.83844 | 51.60337 | 12967 ft | 428 kts | 37° |
| 2026-05-03 20:36 | 24.85881 | 51.62696 | 12560 ft | 420 kts | 50° |
| 2026-05-03 20:36 | 24.87450 | 51.65399 | 12307 ft | 418 kts | 58° |
| 2026-05-03 20:37 | 24.88873 | 51.68198 | 12055 ft | 417 kts | 58° |
| 2026-05-03 20:37 | 24.90295 | 51.70979 | 11818 ft | 417 kts | 58° |
| 2026-05-03 20:37 | 24.91721 | 51.73765 | 11576 ft | 416 kts | 58° |
| 2026-05-03 20:37 | 24.93146 | 51.76551 | 11330 ft | 416 kts | 58° |
| 2026-05-03 20:38 | 24.94087 | 51.78397 | 11177 ft | 416 kts | 58° |
| 2026-05-03 20:38 | 24.95504 | 51.81181 | 10986 ft | 416 kts | 58° |
| 2026-05-03 20:38 | 24.96916 | 51.83966 | 10993 ft | 416 kts | 58° |
| 2026-05-03 20:38 | 24.98308 | 51.86714 | 10992 ft | 400 kts | 58° |
| 2026-05-03 20:39 | 24.99626 | 51.89325 | 10998 ft | 377 kts | 58° |
| 2026-05-03 20:39 | 25.00868 | 51.91784 | 10995 ft | 356 kts | 58° |
| 2026-05-03 20:39 | 25.02013 | 51.94054 | 10990 ft | 329 kts | 57° |
| 2026-05-03 20:39 | 25.03261 | 51.96100 | 10998 ft | 316 kts | 41° |
| 2026-05-03 20:40 | 25.04990 | 51.97525 | 11000 ft | 306 kts | 21° |
| 2026-05-03 20:40 | 25.06992 | 51.98219 | 10860 ft | 299 kts | 2° |
| 2026-05-03 20:40 | 25.09026 | 51.98139 | 10553 ft | 288 kts | 342° |
| 2026-05-03 20:40 | 25.10888 | 51.97419 | 10298 ft | 282 kts | 333° |
| 2026-05-03 20:41 | 25.12704 | 51.96610 | 10032 ft | 281 kts | 333° |
| 2026-05-03 20:41 | 25.14516 | 51.95813 | 9808 ft | 280 kts | 333° |
| 2026-05-03 20:41 | 25.16326 | 51.95025 | 9578 ft | 279 kts | 333° |
| 2026-05-03 20:41 | 25.18130 | 51.94241 | 9338 ft | 278 kts | 333° |
| 2026-05-03 20:42 | 25.19928 | 51.93460 | 9099 ft | 277 kts | 333° |
| 2026-05-03 20:42 | 25.21724 | 51.92680 | 8890 ft | 277 kts | 333° |
| 2026-05-03 20:42 | 25.23515 | 51.91898 | 8658 ft | 276 kts | 333° |
| 2026-05-03 20:42 | 25.25305 | 51.91113 | 8434 ft | 276 kts | 334° |
| 2026-05-03 20:43 | 25.27095 | 51.90340 | 8197 ft | 275 kts | 334° |
| 2026-05-03 20:43 | 25.28856 | 51.89589 | 7965 ft | 274 kts | 334° |
| 2026-05-03 20:43 | 25.30656 | 51.88823 | 7722 ft | 274 kts | 335° |
| 2026-05-03 20:43 | 25.32409 | 51.88079 | 7498 ft | 273 kts | 335° |
| 2026-05-03 20:44 | 25.34133 | 51.87230 | 7254 ft | 268 kts | 322° |
| 2026-05-03 20:44 | 25.35338 | 51.85725 | 7056 ft | 261 kts | 294° |
| 2026-05-03 20:44 | 25.35712 | 51.83776 | 6996 ft | 262 kts | 268° |
| 2026-05-03 20:44 | 25.35185 | 51.81838 | 7002 ft | 268 kts | 245° |
| 2026-05-03 20:45 | 25.34374 | 51.79974 | 7000 ft | 268 kts | 250° |
| 2026-05-03 20:45 | 25.33718 | 51.78074 | 7000 ft | 267 kts | 253° |
| 2026-05-03 20:45 | 25.33109 | 51.76133 | 7002 ft | 267 kts | 253° |
| 2026-05-03 20:45 | 25.32500 | 51.74186 | 7004 ft | 267 kts | 253° |
| 2026-05-03 20:46 | 25.31583 | 51.72389 | 7003 ft | 274 kts | 229° |
| 2026-05-03 20:46 | 25.29920 | 51.71338 | 6967 ft | 286 kts | 198° |
| 2026-05-03 20:46 | 25.27916 | 51.71389 | 6669 ft | 295 kts | 168° |
| 2026-05-03 20:46 | 25.25968 | 51.72113 | 6387 ft | 295 kts | 162° |
| 2026-05-03 20:47 | 25.24071 | 51.72981 | 6109 ft | 294 kts | 159° |
| 2026-05-03 20:47 | 25.22191 | 51.73889 | 5789 ft | 294 kts | 159° |
| 2026-05-03 20:47 | 25.20303 | 51.74794 | 5430 ft | 295 kts | 159° |
| 2026-05-03 20:47 | 25.18432 | 51.75665 | 5080 ft | 295 kts | 160° |
| 2026-05-03 20:48 | 25.16533 | 51.76526 | 4721 ft | 295 kts | 160° |
| 2026-05-03 20:48 | 25.14637 | 51.77371 | 4384 ft | 294 kts | 160° |
| 2026-05-03 20:48 | 25.12741 | 51.78207 | 4088 ft | 291 kts | 160° |
| 2026-05-03 20:48 | 25.10839 | 51.79037 | 3603 ft | 292 kts | 159° |
| 2026-05-03 20:49 | 25.08965 | 51.79837 | 3196 ft | 285 kts | 159° |
| 2026-05-03 20:49 | 25.07124 | 51.80604 | 2797 ft | 282 kts | 159° |
| 2026-05-03 20:49 | 25.05288 | 51.81352 | 2584 ft | 282 kts | 159° |
| 2026-05-03 20:49 | 25.03433 | 51.82099 | 2489 ft | 283 kts | 160° |
| 2026-05-03 20:50 | 25.01584 | 51.82838 | 2495 ft | 283 kts | 160° |
| 2026-05-03 20:50 | 24.99730 | 51.83561 | 2491 ft | 278 kts | 164° |
| 2026-05-03 20:50 | 24.97899 | 51.83762 | 2486 ft | 252 kts | 187° |
| 2026-05-03 20:50 | 24.96303 | 51.83293 | 2493 ft | 225 kts | 208° |
| 2026-05-03 20:51 | 24.95051 | 51.82368 | 2497 ft | 210 kts | 227° |
| 2026-05-03 20:51 | 24.94176 | 51.81154 | 2503 ft | 203 kts | 244° |
| 2026-05-03 20:51 | 24.93666 | 51.79730 | 2505 ft | 198 kts | 261° |
| 2026-05-03 20:51 | 24.93552 | 51.78236 | 2501 ft | 194 kts | 278° |
| 2026-05-03 20:52 | 24.93818 | 51.76795 | 2505 ft | 191 kts | 294° |
| 2026-05-03 20:52 | 24.94422 | 51.75509 | 2501 ft | 188 kts | 309° |
| 2026-05-03 20:52 | 24.95287 | 51.74485 | 2516 ft | 173 kts | 323° |
| 2026-05-03 20:52 | 24.96243 | 51.73809 | 2500 ft | 155 kts | 336° |
| 2026-05-03 20:53 | 24.97213 | 51.73426 | 2493 ft | 144 kts | 348° |
| 2026-05-03 20:53 | 24.98193 | 51.73248 | 2499 ft | 141 kts | 352° |
| 2026-05-03 20:53 | 24.99158 | 51.73089 | 2500 ft | 140 kts | 352° |
| 2026-05-03 20:53 | 25.00120 | 51.72931 | 2500 ft | 140 kts | 352° |
| 2026-05-03 20:54 | 25.01079 | 51.72774 | 2504 ft | 139 kts | 352° |
| 2026-05-03 20:54 | 25.02943 | 51.72412 | 2511 ft | 134 kts | 346° |
| 2026-05-03 20:54 | 25.03839 | 51.72117 | 2508 ft | 134 kts | 342° |
| 2026-05-03 20:55 | 25.04718 | 51.71780 | 2504 ft | 134 kts | 341° |
| 2026-05-03 20:55 | 25.05589 | 51.71423 | 2504 ft | 134 kts | 340° |
| 2026-05-03 20:55 | 25.06459 | 51.71053 | 2504 ft | 134 kts | 340° |
| 2026-05-03 20:55 | 25.07327 | 51.70679 | 2500 ft | 134 kts | 340° |
| 2026-05-03 20:56 | 25.08194 | 51.70302 | 2500 ft | 134 kts | 340° |
| 2026-05-03 20:56 | 25.09058 | 51.69924 | 2506 ft | 134 kts | 340° |
| 2026-05-03 20:56 | 25.09925 | 51.69544 | 2503 ft | 134 kts | 340° |
| 2026-05-03 20:56 | 25.10789 | 51.69165 | 2502 ft | 134 kts | 340° |
| 2026-05-03 20:57 | 25.11653 | 51.68786 | 2503 ft | 134 kts | 340° |
| 2026-05-03 20:57 | 25.12515 | 51.68408 | 2492 ft | 134 kts | 340° |
| 2026-05-03 20:57 | 25.13380 | 51.68028 | 2394 ft | 134 kts | 340° |
| 2026-05-03 20:57 | 25.14246 | 51.67648 | 2268 ft | 134 kts | 340° |
| 2026-05-03 20:58 | 25.15106 | 51.67269 | 2112 ft | 133 kts | 340° |
| 2026-05-03 20:58 | 25.15965 | 51.66892 | 1951 ft | 133 kts | 340° |
| 2026-05-03 20:58 | 25.16821 | 51.66516 | 1791 ft | 132 kts | 340° |
| 2026-05-03 20:58 | 25.17675 | 51.66141 | 1631 ft | 132 kts | 340° |
| 2026-05-03 20:59 | 25.18528 | 51.65766 | 1454 ft | 132 kts | 340° |
| 2026-05-03 20:59 | 25.19380 | 51.65391 | 1291 ft | 131 kts | 339° |
| 2026-05-03 20:59 | 25.20225 | 51.65020 | 1120 ft | 131 kts | 339° |
| 2026-05-03 20:59 | 25.21066 | 51.64650 | 963 ft | 130 kts | 340° |
| 2026-05-03 21:00 | 25.21914 | 51.64275 | 800 ft | 132 kts | 339° |
| 2026-05-03 21:00 | 25.22197 | 51.64151 | 751 ft | 132 kts | 340° |
| 2026-05-03 21:00 | 25.23624 | 51.63532 | 504 ft | 132 kts | 338° |
| 2026-05-03 21:00 | 25.24491 | 51.63147 | 249 ft | 132 kts | 339° |
| 2026-05-03 21:01 | 25.25345 | 51.62779 | 113 ft | 132 kts | 338° |
| 2026-05-03 21:01 | 25.26175 | 51.62400 | 27 ft | 121 kts | 339° |
| 2026-05-03 21:01 | 25.26765 | 51.62157 | 20 ft | 44 kts | 339° |
| 2026-05-03 21:01 | 25.26967 | 51.62006 | 19 ft | 35 kts | 313° |
| 2026-05-03 21:02 | 25.27029 | 51.61913 | 23 ft | 10 kts | 309° |
| 2026-05-03 21:02 | 25.27081 | 51.61845 | 22 ft | 13 kts | 315° |
| 2026-05-03 21:02 | 25.27098 | 51.61747 | 22 ft | 15 kts | 249° |
| 2026-05-03 21:02 | 25.27059 | 51.61641 | 22 ft | 11 kts | 249° |
| 2026-05-03 21:03 | 25.27025 | 51.61549 | 22 ft | 15 kts | 248° |
| 2026-05-03 21:03 | 25.26985 | 51.61463 | 22 ft | 13 kts | 222° |
| 2026-05-03 21:03 | 25.26933 | 51.61436 | 22 ft | 7 kts | 202° |
| 2026-05-03 21:03 | 25.26882 | 51.61411 | 22 ft | 10 kts | 203° |
| 2026-05-03 21:04 | 25.26844 | 51.61385 | 24 ft | 5 kts | 251° |
| 2026-05-03 21:04 | 25.26858 | 51.61340 | 23 ft | 8 kts | 294° |
| 2026-05-03 21:04 | 25.26872 | 51.61303 | 24 ft | 1 kts | 293° |
| 2026-05-03 21:04 | 25.26874 | 51.61298 | 23 ft | 0 kts | 293° |